Terminal Aerodrome Forecast
Issued by NWS

Home | Current Version | Previous Version | Text Only | Print | Product List | Glossary On
Versions: 1 2 3 4 5 6 7 8 9 10 11 12 13 14 15 16 17 18 19 20 21 22 23 24 25 26 27 28 29 30 31
000
FTUS43 KDVN 161833 AAA
TAFCID
TAF AMD
KCID 161833Z 1619/1718 00000KT P6SM BKN015
     FM162100 VRB04KT P6SM SCT020
     FM162300 14007KT P6SM SCT025 BKN150
     FM170900 15014G20KT 6SM -DZ BR OVC015=

USA.gov is the U.S. government's official web portal to all federal, state and local government web resources and services.